Time;durP1;ratioP1;P1;durP2;ratioP2;P2;SDS_P1;SDS_P2;PMS_P1;PMS_P2;Temp;Humidity;BMP_temperature;BMP_pressure;BME280_temperature;BME280_humidity;BME280_pressure;Samples;Min_cycle;Max_cycle;Signal;HPM_P1;HPM_P2
2023/05/08 00:01:05;;;;;;;;;;;;;;;22.38;53.25;100264.09;7318125;19;129798;-36
2023/05/08 00:03:31;;;;;;;;;;;;;;;22.39;53.25;100265.72;7316483;19;129628;-35
2023/05/08 00:05:56;;;;;;;;;;;;;;;22.40;53.24;100256.91;7313655;19;129267;-34
2023/05/08 00:08:21;;;;;;;;;;;;;;;22.41;52.83;100264.63;7318365;19;129408;-34
2023/05/08 00:10:47;;;;;;;;;;;;;;;22.44;52.87;100263.56;7317448;19;129769;-38
2023/05/08 00:13:12;;;;;;;;;;;;;;;22.29;53.10;100239.47;7316539;19;130247;-35
2023/05/08 00:15:37;;;;;;;;;;;;;;;22.44;52.79;100268.81;7316945;19;129014;-34
2023/05/08 00:18:02;;;;;;;;;;;;;;;22.44;53.34;100259.16;7312810;19;130318;-34
2023/05/08 00:20:28;;;;;;;;;;;;;;;21.80;49.64;100268.88;7316864;19;129122;-35
2023/05/08 00:22:53;;;;;;;;;;;;;;;21.59;49.32;100244.41;7315894;19;131147;-37
2023/05/08 00:25:19;;;;;;;;;;;;;;;21.87;52.57;100261.34;7317080;19;129483;-33
2023/05/08 00:27:44;;;;;;;;;;;;;;;22.01;52.53;100257.59;7317973;19;129592;-31
2023/05/08 00:30:09;;;;;;;;;;;;;;;22.13;52.82;100264.47;7317952;19;129236;-38
2023/05/08 00:32:35;;;;;;;;;;;;;;;22.16;52.53;100258.97;7316162;19;130662;-33
2023/05/08 00:35:00;;;;;;;;;;;;;;;22.23;52.67;100257.50;7315926;19;129498;-38
2023/05/08 00:37:25;;;;;;;;;;;;;;;22.26;53.04;100255.47;7316550;19;132673;-33
2023/05/08 00:39:50;;;;;;;;;;;;;;;22.33;52.97;100258.41;7317041;19;129233;-35
2023/05/08 00:42:16;;;;;;;;;;;;;;;22.36;53.20;100255.53;7315832;19;129710;-37
2023/05/08 00:44:41;;;;;;;;;;;;;;;22.37;53.33;100249.31;7317560;19;129048;-38
2023/05/08 00:47:07;;;;;;;;;;;;;;;22.37;53.14;100258.00;7315245;19;129270;-37
2023/05/08 00:49:34;;;;;;;;;;;;;;;22.23;52.93;100237.34;7317617;19;130182;-38
2023/05/08 00:52:00;;;;;;;;;;;;;;;22.37;52.77;100257.16;7315533;19;130458;-37
2023/05/08 00:54:26;;;;;;;;;;;;;;;22.39;53.14;100260.50;7315973;19;128885;-39
2023/05/08 00:56:52;;;;;;;;;;;;;;;22.38;53.31;100258.84;7316391;19;129043;-37
2023/05/08 00:59:19;;;;;;;;;;;;;;;22.41;53.19;100253.34;7316073;19;130276;-40
2023/05/08 01:01:46;;;;;;;;;;;;;;;22.38;52.89;100253.59;7311907;19;130793;-39
2023/05/08 01:04:12;;;;;;;;;;;;;;;21.92;51.20;100236.47;7315734;19;129042;-37
2023/05/08 01:06:40;;;;;;;;;;;;;;;21.61;49.96;100260.81;7314686;19;129534;-34
2023/05/08 01:09:06;;;;;;;;;;;;;;;21.72;49.44;100260.78;7318122;19;130683;-35
2023/05/08 01:11:54;;;;;;;;;;;;;;;21.88;52.75;100255.19;7315428;19;131602;-34
2023/05/08 01:14:56;;;;;;;;;;;;;;;22.05;52.58;100262.47;7317303;19;129074;-33
2023/05/08 01:17:21;;;;;;;;;;;;;;;22.12;52.61;100252.31;7312244;19;129570;-34
2023/05/08 01:20:01;;;;;;;;;;;;;;;22.19;52.82;100264.78;7315079;19;129751;-38
2023/05/08 01:22:42;;;;;;;;;;;;;;;22.24;52.88;100264.38;7314122;19;130474;-34
2023/05/08 01:25:15;;;;;;;;;;;;;;;22.26;52.96;100265.94;7313944;19;129800;-34
2023/05/08 01:27:46;;;;;;;;;;;;;;;22.31;52.58;100262.94;7315756;19;129274;-35
2023/05/08 01:30:15;;;;;;;;;;;;;;;22.33;52.64;100267.06;7316433;19;129580;-36
2023/05/08 01:32:42;;;;;;;;;;;;;;;22.34;53.07;100267.91;7315381;19;130241;-32
2023/05/08 01:35:28;;;;;;;;;;;;;;;22.35;53.08;100269.56;7314464;19;129109;-32
2023/05/08 01:38:02;;;;;;;;;;;;;;;22.34;53.16;100275.78;7316021;19;129260;-35
2023/05/08 01:40:32;;;;;;;;;;;;;;;22.37;52.74;100283.38;7314511;19;131085;-36
2023/05/08 01:43:12;;;;;;;;;;;;;;;22.26;53.23;100258.09;7313342;19;131000;-32
2023/05/08 01:45:38;;;;;;;;;;;;;;;22.38;52.97;100285.03;7315563;19;129369;-32
2023/05/08 01:48:05;;;;;;;;;;;;;;;22.26;52.73;100259.88;7315260;19;129572;-33
2023/05/08 01:50:33;;;;;;;;;;;;;;;21.93;50.50;100284.44;7315305;19;130152;-32
2023/05/08 01:53:08;;;;;;;;;;;;;;;21.66;49.56;100286.63;7314677;19;129267;-36
2023/05/08 01:55:35;;;;;;;;;;;;;;;21.64;49.09;100273.66;7310002;19;129498;-35
2023/05/08 01:58:03;;;;;;;;;;;;;;;21.91;52.77;100275.88;7315758;19;128929;-34
2023/05/08 02:00:28;;;;;;;;;;;;;;;22.04;53.03;100283.53;7314514;19;130027;-38
2023/05/08 02:02:54;;;;;;;;;;;;;;;22.11;52.43;100287.31;7312796;19;130116;-35
2023/05/08 02:05:23;;;;;;;;;;;;;;;22.04;53.14;100259.97;7313190;19;128773;-37
2023/05/08 02:07:49;;;;;;;;;;;;;;;22.21;53.13;100282.97;7316029;19;129410;-32
2023/05/08 02:10:16;;;;;;;;;;;;;;;22.26;52.62;100270.34;7315250;19;130096;-34
2023/05/08 02:12:42;;;;;;;;;;;;;;;22.29;52.82;100275.31;7313985;19;130265;-33
2023/05/08 02:15:08;;;;;;;;;;;;;;;22.30;52.91;100266.50;7314240;19;129234;-36
2023/05/08 02:17:35;;;;;;;;;;;;;;;22.31;53.33;100265.56;7313496;19;128972;-35
2023/05/08 02:20:02;;;;;;;;;;;;;;;22.29;53.17;100264.84;7314379;19;130145;-35
2023/05/08 02:22:28;;;;;;;;;;;;;;;22.31;52.75;100279.50;7313140;19;130328;-32
2023/05/08 02:24:54;;;;;;;;;;;;;;;22.31;53.40;100273.41;7313504;19;129623;-37
2023/05/08 02:27:20;;;;;;;;;;;;;;;22.20;53.34;100255.94;7313261;19;129430;-35
2023/05/08 02:29:46;;;;;;;;;;;;;;;22.36;53.05;100277.28;7314564;19;129607;-34
2023/05/08 02:32:12;;;;;;;;;;;;;;;22.36;52.83;100273.84;7312382;19;131042;-33
2023/05/08 02:34:38;;;;;;;;;;;;;;;22.37;52.89;100278.13;7313477;19;129527;-34
2023/05/08 02:37:04;;;;;;;;;;;;;;;22.39;53.62;100282.28;7308431;19;129615;-35
2023/05/08 02:39:30;;;;;;;;;;;;;;;21.57;50.16;100275.09;7313200;19;129473;-31
2023/05/08 02:41:56;;;;;;;;;;;;;;;21.54;49.44;100279.75;7313181;19;130505;-35
2023/05/08 02:44:21;;;;;;;;;;;;;;;21.79;52.29;100282.09;7313161;19;130414;-35
2023/05/08 02:46:49;;;;;;;;;;;;;;;21.93;53.14;100280.00;7314400;19;129016;-36
2023/05/08 02:49:27;;;;;;;;;;;;;;;21.92;52.70;100254.78;7313496;19;130117;-32
2023/05/08 02:51:56;;;;;;;;;;;;;;;22.12;52.91;100279.34;7312985;19;130575;-37
2023/05/08 02:54:31;;;;;;;;;;;;;;;22.18;53.01;100283.25;7312505;19;129133;-31
2023/05/08 02:57:00;;;;;;;;;;;;;;;22.23;53.28;100274.03;7313295;19;129120;-38
2023/05/08 02:59:34;;;;;;;;;;;;;;;22.25;52.90;100279.13;7313220;19;129518;-35
2023/05/08 03:02:09;;;;;;;;;;;;;;;22.28;53.38;100278.91;7311299;19;132124;-35
2023/05/08 03:04:36;;;;;;;;;;;;;;;22.29;53.21;100280.56;7312958;19;129194;-35
2023/05/08 03:07:03;;;;;;;;;;;;;;;22.29;53.38;100285.78;7311856;19;128995;-36
2023/05/08 03:09:33;;;;;;;;;;;;;;;22.30;53.41;100293.53;7307171;19;130733;-35
2023/05/08 03:12:01;;;;;;;;;;;;;;;22.33;53.07;100297.69;7311770;19;130826;-34
2023/05/08 03:14:27;;;;;;;;;;;;;;;22.35;53.07;100295.75;7312748;19;128838;-34
2023/05/08 03:16:54;;;;;;;;;;;;;;;22.35;53.12;100293.97;7311385;19;129039;-33
2023/05/08 03:19:38;;;;;;;;;;;;;;;22.36;53.00;100292.19;7312915;19;129543;-32
2023/05/08 03:22:04;;;;;;;;;;;;;;;22.35;53.56;100291.34;7312130;19;129863;-34
2023/05/08 03:24:32;;;;;;;;;;;;;;;22.37;53.58;100289.44;7314216;19;129504;-30
2023/05/08 03:26:57;;;;;;;;;;;;;;;21.56;50.26;100291.75;7311405;19;129011;-38
2023/05/08 03:29:24;;;;;;;;;;;;;;;21.51;50.03;100283.44;7316449;19;129514;-34
2023/05/08 03:31:50;;;;;;;;;;;;;;;21.80;52.03;100287.19;7318274;19;130412;-37
2023/05/08 03:34:16;;;;;;;;;;;;;;;21.93;52.91;100282.63;7317345;19;128803;-33
2023/05/08 03:36:41;;;;;;;;;;;;;;;22.05;52.51;100290.44;7318411;19;129392;-34
2023/05/08 03:39:07;;;;;;;;;;;;;;;22.10;52.63;100281.25;7319468;19;129258;-33
2023/05/08 03:41:32;;;;;;;;;;;;;;;22.15;52.82;100286.94;7318166;19;131049;-35
2023/05/08 03:43:57;;;;;;;;;;;;;;;22.18;53.11;100280.63;7316757;19;129069;-36
2023/05/08 03:46:23;;;;;;;;;;;;;;;22.23;52.70;100291.56;7319346;19;129709;-36
2023/05/08 03:48:49;;;;;;;;;;;;;;;22.14;53.00;100272.19;7318419;19;130336;-38
2023/05/08 03:51:14;;;;;;;;;;;;;;;22.28;53.22;100294.63;7319763;19;130893;-34
2023/05/08 03:53:40;;;;;;;;;;;;;;;22.14;53.11;100277.44;7318628;19;129370;-37
2023/05/08 03:56:05;;;;;;;;;;;;;;;22.29;53.30;100296.28;7316529;19;129020;-39
2023/05/08 03:58:30;;;;;;;;;;;;;;;22.16;53.51;100269.44;7318908;19;130982;-36
2023/05/08 04:01:02;;;;;;;;;;;;;;;22.26;53.08;100291.28;7318201;19;130361;-34
2023/05/08 04:03:33;;;;;;;;;;;;;;;22.25;53.76;100287.00;7312992;19;128680;-37
2023/05/08 04:06:01;;;;;;;;;;;;;;;22.30;52.94;100300.53;7317126;19;129093;-38
2023/05/08 04:08:33;;;;;;;;;;;;;;;22.33;53.16;100301.13;7317936;19;130507;-36
2023/05/08 04:11:01;;;;;;;;;;;;;;;22.33;53.10;100300.31;7317115;19;131260;-36
2023/05/08 04:13:30;;;;;;;;;;;;;;;21.59;50.55;100307.22;7317282;19;129280;-36
2023/05/08 04:16:06;;;;;;;;;;;;;;;21.56;50.14;100306.63;7312121;19;131016;-36
2023/05/08 04:18:33;;;;;;;;;;;;;;;21.86;52.42;100306.81;7318599;19;129024;-35
2023/05/08 04:21:00;;;;;;;;;;;;;;;21.91;52.61;100302.84;7314836;19;129572;-35
2023/05/08 04:23:27;;;;;;;;;;;;;;;22.02;52.54;100299.38;7312549;19;130050;-35
2023/05/08 04:25:54;;;;;;;;;;;;;;;21.97;52.87;100285.81;7317234;19;129256;-38
2023/05/08 04:28:19;;;;;;;;;;;;;;;22.13;53.10;100303.75;7316205;19;129778;-36
2023/05/08 04:30:45;;;;;;;;;;;;;;;22.17;52.74;100303.34;7316425;19;130489;-37
2023/05/08 04:33:11;;;;;;;;;;;;;;;22.21;52.67;100319.66;7313738;19;131529;-40
2023/05/08 04:35:36;;;;;;;;;;;;;;;22.22;52.99;100305.59;7314016;19;128919;-38
2023/05/08 04:38:01;;;;;;;;;;;;;;;22.10;53.47;100290.91;7316178;19;129121;-37
2023/05/08 04:40:27;;;;;;;;;;;;;;;22.24;52.76;100319.41;7310910;19;129126;-39
2023/05/08 04:42:52;;;;;;;;;;;;;;;22.23;52.83;100323.00;7313567;19;129530;-36
2023/05/08 04:45:17;;;;;;;;;;;;;;;22.24;52.92;100315.00;7313265;19;129193;-35
2023/05/08 04:47:43;;;;;;;;;;;;;;;22.27;52.96;100327.84;7315011;19;130404;-40
2023/05/08 04:50:08;;;;;;;;;;;;;;;22.28;53.26;100328.69;7312685;19;129203;-34
2023/05/08 04:52:34;;;;;;;;;;;;;;;22.28;53.60;100336.53;7313204;19;129763;-31
2023/05/08 04:54:59;;;;;;;;;;;;;;;22.24;53.63;100341.19;7313366;19;130505;-37
2023/05/08 04:57:24;;;;;;;;;;;;;;;22.18;53.32;100330.38;7315190;19;129362;-37
2023/05/08 04:59:49;;;;;;;;;;;;;;;21.59;49.81;100333.38;7311603;19;130807;-40
2023/05/08 05:02:15;;;;;;;;;;;;;;;21.56;49.31;100344.09;7314007;19;130208;-36
2023/05/08 05:04:40;;;;;;;;;;;;;;;21.82;51.63;100355.13;7314316;19;129877;-35
2023/05/08 05:07:05;;;;;;;;;;;;;;;21.87;52.42;100335.50;7306423;19;130593;-33
2023/05/08 05:09:33;;;;;;;;;;;;;;;21.87;53.04;100318.94;7314591;19;130445;-35
2023/05/08 05:11:58;;;;;;;;;;;;;;;22.06;53.05;100337.47;7300082;19;129614;-38
2023/05/08 05:14:24;;;;;;;;;;;;;;;22.11;52.69;100342.31;7302564;19;129429;-35
2023/05/08 05:16:49;;;;;;;;;;;;;;;22.14;52.75;100349.91;7303418;19;131075;-33
2023/05/08 05:19:14;;;;;;;;;;;;;;;22.16;52.61;100346.22;7311197;19;129416;-32
2023/05/08 05:21:39;;;;;;;;;;;;;;;22.18;52.70;100346.09;7311369;19;129250;-35
2023/05/08 05:24:05;;;;;;;;;;;;;;;22.21;53.02;100340.59;7313509;19;129321;-38
2023/05/08 05:26:30;;;;;;;;;;;;;;;22.09;53.19;100325.88;7313167;19;129928;-31
2023/05/08 05:28:55;;;;;;;;;;;;;;;22.23;53.02;100349.19;7315801;19;129454;-37
2023/05/08 05:31:21;;;;;;;;;;;;;;;22.24;53.64;100348.22;7312912;19;129632;-34
2023/05/08 05:33:46;;;;;;;;;;;;;;;22.24;53.14;100345.59;7314033;19;129588;-34
2023/05/08 05:36:11;;;;;;;;;;;;;;;22.14;53.63;100334.19;7309444;19;130208;-41
2023/05/08 05:38:37;;;;;;;;;;;;;;;22.27;53.56;100356.66;7314395;19;131532;-33
2023/05/08 05:41:02;;;;;;;;;;;;;;;22.27;53.49;100348.78;7311241;19;130196;-36
2023/05/08 05:43:27;;;;;;;;;;;;;;;22.26;53.75;100348.91;7313109;19;129195;-35
2023/05/08 05:45:54;;;;;;;;;;;;;;;22.26;53.06;100348.91;7314091;19;130109;-31
2023/05/08 05:48:20;;;;;;;;;;;;;;;21.54;49.71;100345.16;7316315;19;129284;-37
2023/05/08 05:50:45;;;;;;;;;;;;;;;21.36;49.42;100329.13;7308357;19;131143;-36
2023/05/08 05:53:10;;;;;;;;;;;;;;;21.71;52.44;100352.50;7309419;19;128995;-35
2023/05/08 05:55:35;;;;;;;;;;;;;;;21.87;52.89;100353.81;7312013;19;130111;-40
2023/05/08 05:58:01;;;;;;;;;;;;;;;21.98;52.65;100351.16;7312973;19;129589;-38
2023/05/08 06:00:26;;;;;;;;;;;;;;;21.91;53.26;100331.66;7313648;19;129195;-36
2023/05/08 06:02:51;;;;;;;;;;;;;;;22.11;52.51;100358.03;7309830;19;128919;-37
2023/05/08 06:05:18;;;;;;;;;;;;;;;22.15;52.98;100362.06;7315203;19;129135;-36
2023/05/08 06:07:43;;;;;;;;;;;;;;;22.17;52.61;100360.13;7313637;19;130215;-38
2023/05/08 06:10:09;;;;;;;;;;;;;;;22.19;53.01;100353.00;7312072;19;129931;-38
2023/05/08 06:12:34;;;;;;;;;;;;;;;22.08;52.43;100340.75;7312641;19;129042;-37
2023/05/08 06:14:59;;;;;;;;;;;;;;;22.21;52.59;100361.56;7313926;19;129070;-35
2023/05/08 06:17:25;;;;;;;;;;;;;;;22.21;53.09;100356.31;7312984;19;130318;-40
2023/05/08 06:19:53;;;;;;;;;;;;;;;22.21;52.75;100356.31;7313322;19;129458;-38
2023/05/08 06:22:22;;;;;;;;;;;;;;;22.22;52.45;100360.59;7313239;19;129510;-34
2023/05/08 06:24:47;;;;;;;;;;;;;;;22.24;52.25;100356.06;7313358;19;130146;-40
2023/05/08 06:27:12;;;;;;;;;;;;;;;22.23;52.70;100364.91;7311308;19;130513;-38
2023/05/08 06:29:38;;;;;;;;;;;;;;;22.10;52.13;100345.91;7310289;19;129515;-40
2023/05/08 06:32:03;;;;;;;;;;;;;;;22.22;52.50;100357.97;7312029;19;129179;-38
2023/05/08 06:34:28;;;;;;;;;;;;;;;22.21;52.17;100362.41;7311142;19;129906;-37
2023/05/08 06:36:54;;;;;;;;;;;;;;;22.20;52.71;100360.72;7311726;19;130439;-37
2023/05/08 06:39:19;;;;;;;;;;;;;;;21.85;49.81;100357.50;7313098;19;128882;-39
2023/05/08 06:41:48;;;;;;;;;;;;;;;21.58;49.48;100365.75;7311880;19;129770;-38
2023/05/08 06:44:13;;;;;;;;;;;;;;;21.71;50.70;100368.22;7314422;19;130178;-37
2023/05/08 06:46:38;;;;;;;;;;;;;;;21.86;52.06;100372.25;7311011;19;129584;-37
2023/05/08 06:49:04;;;;;;;;;;;;;;;21.97;52.29;100374.84;7313024;19;129007;-34
2023/05/08 06:51:30;;;;;;;;;;;;;;;22.04;52.29;100369.94;7312264;19;129372;-35
2023/05/08 06:53:55;;;;;;;;;;;;;;;21.93;52.14;100348.06;7310722;19;130940;-39
2023/05/08 06:56:21;;;;;;;;;;;;;;;22.09;52.35;100362.53;7310911;19;130059;-35
2023/05/08 06:58:46;;;;;;;;;;;;;;;22.14;52.00;100363.84;7313009;19;129338;-35
2023/05/08 07:01:12;;;;;;;;;;;;;;;22.15;52.41;100359.44;7310221;19;129147;-35
2023/05/08 07:03:40;;;;;;;;;;;;;;;22.01;53.27;100362.34;7310473;19;129107;-37
2023/05/08 07:06:05;;;;;;;;;;;;;;;22.13;52.45;100361.34;7311105;19;131161;-41
2023/05/08 07:08:31;;;;;;;;;;;;;;;22.07;52.29;100344.34;7305078;19;130205;-39
2023/05/08 07:10:56;;;;;;;;;;;;;;;22.18;52.78;100351.34;7310002;19;130342;-39
2023/05/08 07:13:21;;;;;;;;;;;;;;;22.20;52.45;100354.66;7310774;19;130095;-41
2023/05/08 07:15:46;;;;;;;;;;;;;;;22.20;52.74;100350.25;7310466;19;131333;-36
2023/05/08 07:18:12;;;;;;;;;;;;;;;22.22;52.62;100352.72;7312162;19;129069;-38
2023/05/08 07:20:37;;;;;;;;;;;;;;;22.19;52.88;100350.38;7310442;19;130987;-39
2023/05/08 07:23:02;;;;;;;;;;;;;;;22.05;53.13;100345.44;7310198;19;130610;-36
2023/05/08 07:25:27;;;;;;;;;;;;;;;22.12;52.11;100357.06;7305153;19;129673;-41
2023/05/08 07:27:53;;;;;;;;;;;;;;;21.34;50.08;100359.81;7308077;19;130216;-37
2023/05/08 07:30:18;;;;;;;;;;;;;;;21.38;49.19;100342.09;7310513;19;130524;-40
2023/05/08 07:32:43;;;;;;;;;;;;;;;21.65;52.21;100359.06;7308735;19;130594;-35
2023/05/08 07:35:10;;;;;;;;;;;;;;;21.83;53.31;100368.09;7309981;19;129151;-36
2023/05/08 07:37:36;;;;;;;;;;;;;;;21.93;53.33;100358.53;7308873;19;129054;-39
2023/05/08 07:40:01;;;;;;;;;;;;;;;22.00;53.93;100356.25;7308037;19;130335;-39
2023/05/08 07:42:26;;;;;;;;;;;;;;;22.06;53.48;100373.28;7308579;19;129539;-38
2023/05/08 07:44:51;;;;;;;;;;;;;;;22.07;53.59;100362.69;7310207;19;129754;-37
2023/05/08 07:47:17;;;;;;;;;;;;;;;22.12;54.01;100354.44;7309921;19;129028;-40
2023/05/08 07:49:42;;;;;;;;;;;;;;;22.13;53.24;100363.97;7308391;19;129816;-39
2023/05/08 07:52:07;;;;;;;;;;;;;;;22.16;53.33;100354.09;7309419;19;129429;-35
2023/05/08 07:54:32;;;;;;;;;;;;;;;22.16;53.87;100361.94;7305193;19;129184;-39
2023/05/08 07:56:58;;;;;;;;;;;;;;;22.13;53.34;100350.88;7310380;19;129025;-35
2023/05/08 07:59:23;;;;;;;;;;;;;;;22.17;53.31;100360.13;7308088;19;128810;-36
2023/05/08 08:01:48;;;;;;;;;;;;;;;22.19;53.80;100353.00;7307568;19;132108;-38
2023/05/08 08:04:14;;;;;;;;;;;;;;;22.17;53.67;100349.66;7308126;19;130145;-39
2023/05/08 08:06:39;;;;;;;;;;;;;;;22.17;53.91;100349.66;7308776;19;129428;-39
2023/05/08 08:09:05;;;;;;;;;;;;;;;21.67;50.83;100357.16;7304277;19;129244;-38
2023/05/08 08:11:30;;;;;;;;;;;;;;;21.33;50.36;100355.53;7308905;19;129761;-38
2023/05/08 08:13:55;;;;;;;;;;;;;;;21.35;50.12;100332.72;7307983;19;130357;-38
2023/05/08 08:16:20;;;;;;;;;;;;;;;21.70;52.61;100351.66;7316389;19;128956;-39
2023/05/08 08:18:46;;;;;;;;;;;;;;;21.85;53.34;100350.47;7316338;19;129088;-36
2023/05/08 08:21:11;;;;;;;;;;;;;;;21.94;53.41;100349.75;7316540;19;129635;-40
2023/05/08 08:23:36;;;;;;;;;;;;;;;22.02;52.85;100345.66;7313515;19;129246;-40
2023/05/08 08:26:01;;;;;;;;;;;;;;;21.92;52.99;100320.25;7316854;19;129139;-41
2023/05/08 08:28:27;;;;;;;;;;;;;;;22.12;53.15;100347.41;7316006;19;130362;-35
2023/05/08 08:30:52;;;;;;;;;;;;;;;22.15;53.38;100346.34;7317559;19;130253;-37
2023/05/08 08:33:17;;;;;;;;;;;;;;;22.16;53.06;100348.84;7314469;19;130770;-40
2023/05/08 08:35:42;;;;;;;;;;;;;;;22.18;53.01;100340.88;7317087;19;129203;-36
2023/05/08 08:38:08;;;;;;;;;;;;;;;22.18;53.32;100335.63;7314047;19;129231;-37
2023/05/08 08:40:37;;;;;;;;;;;;;;;22.17;53.02;100337.41;7316949;19;129048;-39
2023/05/08 08:43:02;;;;;;;;;;;;;;;22.18;53.40;100340.88;7313730;19;129275;-40
2023/05/08 08:45:28;;;;;;;;;;;;;;;22.20;53.17;100338.94;7317035;19;129459;-37
2023/05/08 08:47:54;;;;;;;;;;;;;;;22.19;53.20;100340.75;7311883;19;129334;-39
2023/05/08 08:50:20;;;;;;;;;;;;;;;22.20;53.54;100339.75;7316056;19;130697;-38
2023/05/08 08:52:46;;;;;;;;;;;;;;;22.17;53.62;100340.03;7314633;19;129695;-38
2023/05/08 08:55:14;;;;;;;;;;;;;;;22.20;53.17;100349.41;7315516;19;128880;-39
2023/05/08 08:57:44;;;;;;;;;;;;;;;21.41;50.52;100345.28;7316234;19;129818;-37
2023/05/08 09:00:10;;;;;;;;;;;;;;;21.23;50.52;100328.44;7314931;19;130438;-35
2023/05/08 09:02:35;;;;;;;;;;;;;;;21.38;51.49;100324.63;7314515;19;131734;-40
2023/05/08 09:05:01;;;;;;;;;;;;;;;21.74;52.95;100342.63;7316238;19;129438;-38
2023/05/08 09:07:28;;;;;;;;;;;;;;;21.87;53.31;100343.34;7314678;19;129548;-38
2023/05/08 09:09:54;;;;;;;;;;;;;;;21.95;53.14;100337.47;7314807;19;130649;-39
2023/05/08 09:12:19;;;;;;;;;;;;;;;22.00;53.04;100343.16;7314807;19;129606;-39
2023/05/08 09:14:45;;;;;;;;;;;;;;;22.06;53.16;100341.84;7314214;19;129449;-39
2023/05/08 09:17:10;;;;;;;;;;;;;;;22.09;53.44;100331.13;7315812;19;129451;-37
2023/05/08 09:19:35;;;;;;;;;;;;;;;22.10;52.87;100333.63;7316153;19;130429;-37
2023/05/08 09:22:02;;;;;;;;;;;;;;;22.12;53.37;100336.09;7315838;19;129204;-38
2023/05/08 09:24:46;;;;;;;;;;;;;;;22.13;52.86;100332.56;7316535;19;129527;-33
2023/05/08 09:27:21;;;;;;;;;;;;;;;22.09;53.46;100325.88;7308822;19;130480;-38
2023/05/08 09:29:57;;;;;;;;;;;;;;;22.03;53.12;100315.91;7315753;19;130131;-38
2023/05/08 09:32:23;;;;;;;;;;;;;;;22.14;53.22;100336.81;7311507;19;129530;-37
2023/05/08 09:34:51;;;;;;;;;;;;;;;22.05;53.14;100321.88;7313547;19;129192;-37
2023/05/08 09:37:16;;;;;;;;;;;;;;;22.12;53.08;100321.22;7314051;19;129179;-39
2023/05/08 09:39:42;;;;;;;;;;;;;;;22.15;53.27;100335.88;7314636;19;129488;-39
2023/05/08 09:42:08;;;;;;;;;;;;;;;22.14;53.82;100321.09;7314112;19;130637;-36
2023/05/08 09:44:44;;;;;;;;;;;;;;;21.51;50.32;100325.31;7315587;19;129271;-35
2023/05/08 09:47:12;;;;;;;;;;;;;;;21.32;49.94;100316.41;7311670;19;129037;-39
2023/05/08 09:49:39;;;;;;;;;;;;;;;21.53;49.70;100323.41;7315446;19;131050;-35
2023/05/08 09:52:04;;;;;;;;;;;;;;;21.70;53.25;100319.44;7313890;19;130412;-38
2023/05/08 09:54:29;;;;;;;;;;;;;;;21.82;53.05;100316.69;7314489;19;129106;-38
2023/05/08 09:56:55;;;;;;;;;;;;;;;21.89;53.47;100315.25;7313489;19;129014;-37
2023/05/08 09:59:25;;;;;;;;;;;;;;;21.95;53.23;100322.59;7315703;19;129479;-37
2023/05/08 10:01:50;;;;;;;;;;;;;;;21.98;53.45;100324.97;7312548;19;130425;-35
2023/05/08 10:04:15;;;;;;;;;;;;;;;22.02;53.01;100314.25;7314487;19;129544;-39
2023/05/08 10:06:41;;;;;;;;;;;;;;;22.06;53.64;100313.06;7313483;19;129696;-38
2023/05/08 10:09:07;;;;;;;;;;;;;;;22.07;53.37;100312.09;7314489;19;129518;-38
2023/05/08 10:11:32;;;;;;;;;;;;;;;22.08;53.67;100319.00;7313564;19;130504;-37
2023/05/08 10:13:58;;;;;;;;;;;;;;;22.07;53.46;100306.84;7311403;19;131013;-39
2023/05/08 10:16:25;;;;;;;;;;;;;;;22.09;53.19;100315.41;7313685;19;129346;-42
2023/05/08 10:18:55;;;;;;;;;;;;;;;22.11;53.86;100313.50;7314035;19;130111;-41
2023/05/08 10:21:22;;;;;;;;;;;;;;;22.12;53.87;100312.53;7312912;19;131131;-40
2023/05/08 10:23:48;;;;;;;;;;;;;;;22.12;53.24;100316.00;7310406;19;129474;-39
2023/05/08 10:26:15;;;;;;;;;;;;;;;22.02;53.24;100294.13;7314635;19;129000;-41
2023/05/08 10:28:48;;;;;;;;;;;;;;;22.13;53.68;100306.34;7310928;19;130211;-39
2023/05/08 10:31:16;;;;;;;;;;;;;;;21.51;51.00;100314.84;7312889;19;129675;-42
2023/05/08 10:33:43;;;;;;;;;;;;;;;21.36;50.73;100316.06;7311781;19;128995;-39
2023/05/08 10:36:09;;;;;;;;;;;;;;;21.39;50.06;100313.19;7313671;19;129033;-42
2023/05/08 10:38:35;;;;;;;;;;;;;;;21.61;53.05;100294.00;7311651;19;129482;-40
2023/05/08 10:41:00;;;;;;;;;;;;;;;21.77;52.73;100295.28;7312002;19;129754;-42
2023/05/08 10:43:27;;;;;;;;;;;;;;;21.83;53.31;100294.78;7310471;19;129109;-34
2023/05/08 10:45:54;;;;;;;;;;;;;;;21.91;53.58;100292.38;7313778;19;129257;-36
2023/05/08 10:48:28;;;;;;;;;;;;;;;21.96;53.37;100292.03;7313973;19;129573;-35
2023/05/08 10:51:00;;;;;;;;;;;;;;;22.02;53.41;100290.69;7314504;19;129659;-30
2023/05/08 10:53:28;;;;;;;;;;;;;;;22.04;53.51;100294.00;7310297;19;129826;-36
2023/05/08 10:55:54;;;;;;;;;;;;;;;22.04;53.42;100296.63;7312537;19;129919;-34
2023/05/08 10:58:22;;;;;;;;;;;;;;;22.03;53.34;100285.34;7311743;19;129459;-40
2023/05/08 11:00:53;;;;;;;;;;;;;;;22.03;53.09;100289.75;7313718;19;129623;-37
2023/05/08 11:03:19;;;;;;;;;;;;;;;22.07;53.95;100291.13;7312260;19;129039;-34
2023/05/08 11:05:46;;;;;;;;;;;;;;;22.07;53.85;100285.91;7313160;19;129359;-33
2023/05/08 11:08:16;;;;;;;;;;;;;;;22.08;53.64;100282.34;7313114;19;130872;-40
2023/05/08 11:10:42;;;;;;;;;;;;;;;22.06;53.59;100263.28;7307282;19;129859;-33
2023/05/08 11:13:08;;;;;;;;;;;;;;;22.06;53.67;100273.78;7310363;19;129048;-36
2023/05/08 11:15:40;;;;;;;;;;;;;;;22.08;53.92;100277.09;7312468;19;129284;-34
2023/05/08 11:18:07;;;;;;;;;;;;;;;21.40;51.11;100282.63;7312355;19;129617;-31
2023/05/08 11:20:51;;;;;;;;;;;;;;;21.42;50.80;100272.91;7312337;19;129273;-36
2023/05/08 11:23:21;;;;;;;;;;;;;;;21.38;50.02;100274.91;7307796;19;129609;-33
2023/05/08 11:25:46;;;;;;;;;;;;;;;21.51;53.11;100252.06;7311363;19;129026;-35
2023/05/08 11:28:15;;;;;;;;;;;;;;;21.74;53.24;100268.50;7311709;19;129515;-40
2023/05/08 11:30:40;;;;;;;;;;;;;;;21.71;53.51;100253.06;7311154;19;129438;-47
2023/05/08 11:33:05;;;;;;;;;;;;;;;21.90;53.06;100259.31;7310969;19;128898;-38
2023/05/08 11:35:41;;;;;;;;;;;;;;;21.92;53.13;100262.66;7306838;19;130397;-41
2023/05/08 11:38:24;;;;;;;;;;;;;;;21.98;53.83;100260.47;7311346;19;130128;-36
2023/05/08 11:41:01;;;;;;;;;;;;;;;22.00;53.14;100263.81;7311718;19;130149;-38
2023/05/08 11:43:33;;;;;;;;;;;;;;;22.00;53.82;100266.44;7309822;19;129176;-38
2023/05/08 11:46:24;;;;;;;;;;;;;;;22.02;53.30;100261.88;7311402;19;128909;-34
2023/05/08 11:48:57;;;;;;;;;;;;;;;22.03;53.52;100253.91;7309446;19;130292;-38
2023/05/08 11:51:23;;;;;;;;;;;;;;;22.04;53.53;100254.72;7318461;19;131025;-39
2023/05/08 11:53:48;;;;;;;;;;;;;;;22.06;53.98;100258.06;7316932;19;130099;-34
2023/05/08 11:56:13;;;;;;;;;;;;;;;22.06;54.13;100258.06;7318749;19;129153;-37
2023/05/08 11:58:38;;;;;;;;;;;;;;;22.07;53.97;100260.56;7317121;19;129593;-35
2023/05/08 12:01:04;;;;;;;;;;;;;;;22.09;54.16;100263.88;7319747;19;130431;-33
2023/05/08 12:03:30;;;;;;;;;;;;;;;22.07;54.08;100246.63;7317311;19;129548;-36
2023/05/08 12:05:56;;;;;;;;;;;;;;;22.08;54.12;100256.97;7318502;19;128883;-34
2023/05/08 12:08:21;;;;;;;;;;;;;;;21.33;50.95;100261.38;7319002;19;130298;-42
2023/05/08 12:10:50;;;;;;;;;;;;;;;21.32;49.86;100257.06;7318486;19;129090;-32
2023/05/08 12:13:19;;;;;;;;;;;;;;;21.54;51.98;100262.28;7316575;19;129644;-40
2023/05/08 12:15:48;;;;;;;;;;;;;;;21.58;53.55;100240.16;7317240;19;129057;-40
2023/05/08 12:18:14;;;;;;;;;;;;;;;21.77;52.95;100253.41;7318597;19;130138;-42
2023/05/08 12:20:40;;;;;;;;;;;;;;;21.86;53.46;100257.09;7317837;19;130377;-41
2023/05/08 12:23:05;;;;;;;;;;;;;;;21.92;53.78;100256.56;7316588;19;128921;-42
2023/05/08 12:25:30;;;;;;;;;;;;;;;21.81;53.21;100233.91;7316630;19;128828;-40
2023/05/08 12:27:57;;;;;;;;;;;;;;;21.96;53.41;100250.13;7316911;19;128925;-43